RJFR/KKJ METAR and TAF weather

Enter ICAO airport designator
Station Type Date Time Source
RJFR METAR 2019/09/20 09:00 UTC NOAA

RJFR 200900Z 14014KT 9999 -SHRA FEW008 SCT040 BKN070 19/16 Q1017


Station Type Date Time Source
RJFR Decoded METAR 2019/09/20 09:00 UTC NOAA

Kitakyushu Airport, Japan (RJFR) 33-50N 130-57E 6M
Sep 20, 2019 - 05:00 AM EDT / 2019.09.20 0900 UTC
Wind: from the SE (140 degrees) at 16 MPH (14 KT):0
Visibility: greater than 7 mile(s):0
Sky conditions: mostly cloudy
Weather: light rain showers
Temperature: 66 F (19 C)
Dew Point: 60 F (16 C)
Relative Humidity: 82%
Pressure (altimeter): 30.03 in. Hg (1017 hPa)
ob: RJFR 200900Z 14014KT 9999 -SHRA FEW008 SCT040 BKN070 19/16 Q1017
cycle: 9

Station Type Date Time Source
RJFR TAF 2019/09/20 06:30 UTC NOAA

TAF RJFR 200508Z 2006/2112 13013KT 8000 -SHRA FEW008 SCT010 BKN020
TEMPO 2007/2009 4000 SHRA BR
TEMPO 2009/2013 10018G28KT 4000 SHRA BR
BECMG 2012/2014 06015KT
BECMG 2100/2103 09018KT
TEMPO 2109/2112 09020G30KT 4000 SHRA BR FEW005 BKN008 BKN015

Example: see airport list